sensor_id;sensor_type;location;lat;lon;timestamp;pressure;altitude;pressure_sealevel;temperature;humidity
31225;BME280;17847;31.524;74.366;2023-04-10T00:00:28;98741.78;;;20.81;72.38
31225;BME280;17847;31.524;74.366;2023-04-10T00:02:59;98740.19;;;20.80;72.89
31225;BME280;17847;31.524;74.366;2023-04-10T00:05:30;98735.28;;;20.77;72.73
31225;BME280;17847;31.524;74.366;2023-04-10T00:08:01;98743.06;;;20.73;72.64
31225;BME280;17847;31.524;74.366;2023-04-10T00:10:31;98744.41;;;20.71;72.94
31225;BME280;17847;31.524;74.366;2023-04-10T00:13:01;98749.28;;;20.74;73.08
31225;BME280;17847;31.524;74.366;2023-04-10T00:15:32;98743.31;;;20.67;72.73
31225;BME280;17847;31.524;74.366;2023-04-10T00:18:01;98744.09;;;20.67;73.08
31225;BME280;17847;31.524;74.366;2023-04-10T00:20:30;98742.78;;;20.70;72.10
31225;BME280;17847;31.524;74.366;2023-04-10T00:23:00;98740.09;;;20.70;71.96
31225;BME280;17847;31.524;74.366;2023-04-10T00:25:29;98752.69;;;20.64;72.38
31225;BME280;17847;31.524;74.366;2023-04-10T00:27:58;98747.25;;;20.59;72.42
31225;BME280;17847;31.524;74.366;2023-04-10T00:30:28;98759.06;;;20.53;72.51
31225;BME280;17847;31.524;74.366;2023-04-10T00:32:58;98754.38;;;20.43;73.30
31225;BME280;17847;31.524;74.366;2023-04-10T00:35:27;98754.69;;;20.47;73.79
31225;BME280;17847;31.524;74.366;2023-04-10T00:37:57;98758.72;;;20.49;73.52
31225;BME280;17847;31.524;74.366;2023-04-10T00:40:26;98762.25;;;20.50;73.21
31225;BME280;17847;31.524;74.366;2023-04-10T00:42:58;98753.41;;;20.54;73.32
31225;BME280;17847;31.524;74.366;2023-04-10T00:45:28;98759.84;;;20.53;72.91
31225;BME280;17847;31.524;74.366;2023-04-10T00:47:57;98770.06;;;20.51;73.62
31225;BME280;17847;31.524;74.366;2023-04-10T00:50:27;98765.22;;;20.48;73.16
31225;BME280;17847;31.524;74.366;2023-04-10T00:52:57;98771.75;;;20.57;72.88
31225;BME280;17847;31.524;74.366;2023-04-10T00:55:27;98776.56;;;20.55;72.36
31225;BME280;17847;31.524;74.366;2023-04-10T00:57:57;98777.63;;;20.54;72.09
31225;BME280;17847;31.524;74.366;2023-04-10T01:00:26;98776.25;;;20.52;72.72
31225;BME280;17847;31.524;74.366;2023-04-10T01:02:56;98782.19;;;20.54;72.29
31225;BME280;17847;31.524;74.366;2023-04-10T01:05:34;98777.06;;;20.52;73.04
31225;BME280;17847;31.524;74.366;2023-04-10T01:08:11;98779.25;;;20.55;72.58
31225;BME280;17847;31.524;74.366;2023-04-10T01:11:04;98790.31;;;20.59;72.40
31225;BME280;17847;31.524;74.366;2023-04-10T01:13:42;98784.44;;;20.62;72.42
31225;BME280;17847;31.524;74.366;2023-04-10T01:16:23;98797.13;;;20.67;72.15
31225;BME280;17847;31.524;74.366;2023-04-10T01:21:55;98804.38;;;20.66;72.61
31225;BME280;17847;31.524;74.366;2023-04-10T01:24:49;98802.28;;;20.73;72.32
31225;BME280;17847;31.524;74.366;2023-04-10T01:27:43;98818.78;;;20.82;72.42
31225;BME280;17847;31.524;74.366;2023-04-10T01:30:17;98818.59;;;20.88;71.86
31225;BME280;17847;31.524;74.366;2023-04-10T01:32:50;98812.97;;;20.95;71.81
31225;BME280;17847;31.524;74.366;2023-04-10T01:35:25;98817.41;;;21.06;72.02
31225;BME280;17847;31.524;74.366;2023-04-10T01:37:59;98828.56;;;21.20;71.37
31225;BME280;17847;31.524;74.366;2023-04-10T01:40:30;98828.63;;;21.30;71.66
31225;BME280;17847;31.524;74.366;2023-04-10T01:43:03;98830.56;;;21.34;71.48
31225;BME280;17847;31.524;74.366;2023-04-10T01:45:44;98832.44;;;21.34;71.49
31225;BME280;17847;31.524;74.366;2023-04-10T01:48:15;98833.31;;;21.44;71.35
31225;BME280;17847;31.524;74.366;2023-04-10T01:50:47;98839.88;;;21.59;71.34
31225;BME280;17847;31.524;74.366;2023-04-10T01:53:17;98841.28;;;21.66;70.86
31225;BME280;17847;31.524;74.366;2023-04-10T01:55:48;98841.84;;;21.73;72.02
31225;BME280;17847;31.524;74.366;2023-04-10T01:58:19;98845.13;;;21.80;72.12
31225;BME280;17847;31.524;74.366;2023-04-10T02:00:48;98839.03;;;21.95;71.04
31225;BME280;17847;31.524;74.366;2023-04-10T02:03:18;98848.25;;;22.09;70.78
31225;BME280;17847;31.524;74.366;2023-04-10T02:06:17;98843.19;;;22.23;69.89
31225;BME280;17847;31.524;74.366;2023-04-10T02:08:58;98842.97;;;22.39;69.76
31225;BME280;17847;31.524;74.366;2023-04-10T02:11:40;98845.19;;;22.63;68.53
31225;BME280;17847;31.524;74.366;2023-04-10T02:14:11;98840.97;;;23.27;65.39
31225;BME280;17847;31.524;74.366;2023-04-10T02:16:44;98850.97;;;24.42;61.50
31225;BME280;17847;31.524;74.366;2023-04-10T02:19:16;98847.56;;;25.43;58.47
31225;BME280;17847;31.524;74.366;2023-04-10T02:21:47;98853.03;;;26.19;54.77
31225;BME280;17847;31.524;74.366;2023-04-10T02:24:17;98847.56;;;26.86;53.49
31225;BME280;17847;31.524;74.366;2023-04-10T02:26:49;98861.34;;;27.40;52.84
31225;BME280;17847;31.524;74.366;2023-04-10T02:29:19;98860.97;;;27.79;51.18
31225;BME280;17847;31.524;74.366;2023-04-10T02:31:49;98867.91;;;27.99;49.62
31225;BME280;17847;31.524;74.366;2023-04-10T02:34:19;98865.22;;;28.12;50.08
31225;BME280;17847;31.524;74.366;2023-04-10T02:36:48;98868.31;;;28.33;48.30
31225;BME280;17847;31.524;74.366;2023-04-10T02:39:18;98876.09;;;28.40;49.31
31225;BME280;17847;31.524;74.366;2023-04-10T02:41:50;98890.72;;;28.71;48.67
31225;BME280;17847;31.524;74.366;2023-04-10T02:44:20;98882.13;;;28.78;49.20
31225;BME280;17847;31.524;74.366;2023-04-10T02:46:49;98884.66;;;28.61;49.50
31225;BME280;17847;31.524;74.366;2023-04-10T02:49:20;98885.59;;;28.29;50.24
31225;BME280;17847;31.524;74.366;2023-04-10T02:51:50;98891.81;;;28.02;48.31
31225;BME280;17847;31.524;74.366;2023-04-10T02:54:20;98887.53;;;27.68;51.55
31225;BME280;17847;31.524;74.366;2023-04-10T02:56:50;98887.59;;;27.50;51.50
31225;BME280;17847;31.524;74.366;2023-04-10T02:59:19;98886.00;;;27.30;49.71
31225;BME280;17847;31.524;74.366;2023-04-10T03:01:49;98892.19;;;27.17;52.06
31225;BME280;17847;31.524;74.366;2023-04-10T03:04:22;98891.19;;;26.94;54.29
31225;BME280;17847;31.524;74.366;2023-04-10T03:06:52;98896.78;;;26.79;55.24
31225;BME280;17847;31.524;74.366;2023-04-10T03:09:23;98891.72;;;26.54;55.53
31225;BME280;17847;31.524;74.366;2023-04-10T03:11:53;98909.81;;;26.40;57.46
31225;BME280;17847;31.524;74.366;2023-04-10T03:14:23;98907.81;;;26.26;55.78
31225;BME280;17847;31.524;74.366;2023-04-10T03:16:53;98903.84;;;26.14;58.46
31225;BME280;17847;31.524;74.366;2023-04-10T03:19:22;98909.56;;;26.12;55.57
31225;BME280;17847;31.524;74.366;2023-04-10T03:21:54;98907.66;;;26.13;51.89
31225;BME280;17847;31.524;74.366;2023-04-10T03:24:23;98908.69;;;26.17;50.14
31225;BME280;17847;31.524;74.366;2023-04-10T03:26:53;98910.66;;;26.11;49.72
31225;BME280;17847;31.524;74.366;2023-04-10T03:29:24;98910.16;;;26.09;50.35
31225;BME280;17847;31.524;74.366;2023-04-10T03:31:55;98916.97;;;26.07;48.36
31225;BME280;17847;31.524;74.366;2023-04-10T03:34:26;98920.81;;;26.01;48.61
31225;BME280;17847;31.524;74.366;2023-04-10T03:36:55;98919.75;;;26.02;47.69
31225;BME280;17847;31.524;74.366;2023-04-10T03:39:25;98925.13;;;26.07;46.07
31225;BME280;17847;31.524;74.366;2023-04-10T03:41:54;98922.31;;;26.12;44.11
31225;BME280;17847;31.524;74.366;2023-04-10T03:44:24;98934.03;;;26.07;45.07
31225;BME280;17847;31.524;74.366;2023-04-10T03:46:54;98929.75;;;26.06;45.69
31225;BME280;17847;31.524;74.366;2023-04-10T03:49:23;98937.28;;;26.09;45.58
31225;BME280;17847;31.524;74.366;2023-04-10T03:52:01;98936.72;;;26.12;45.87
31225;BME280;17847;31.524;74.366;2023-04-10T03:54:30;98944.00;;;26.17;45.52
31225;BME280;17847;31.524;74.366;2023-04-10T03:56:59;98955.94;;;26.21;45.55
31225;BME280;17847;31.524;74.366;2023-04-10T03:59:32;98950.94;;;26.33;45.07
31225;BME280;17847;31.524;74.366;2023-04-10T04:02:10;98952.25;;;26.35;45.79
31225;BME280;17847;31.524;74.366;2023-04-10T04:04:41;98949.41;;;26.46;45.47
31225;BME280;17847;31.524;74.366;2023-04-10T04:07:40;98955.34;;;26.48;45.66
31225;BME280;17847;31.524;74.366;2023-04-10T04:10:42;98950.13;;;26.51;43.59
31225;BME280;17847;31.524;74.366;2023-04-10T04:13:16;98951.53;;;26.72;42.11
31225;BME280;17847;31.524;74.366;2023-04-10T04:16:05;98952.84;;;26.75;42.88
31225;BME280;17847;31.524;74.366;2023-04-10T04:18:43;98957.00;;;26.91;38.35
31225;BME280;17847;31.524;74.366;2023-04-10T04:21:19;98959.00;;;27.04;40.56
31225;BME280;17847;31.524;74.366;2023-04-10T04:24:18;98959.44;;;27.30;36.21
31225;BME280;17847;31.524;74.366;2023-04-10T04:27:04;98953.69;;;27.69;35.98
31225;BME280;17847;31.524;74.366;2023-04-10T04:29:48;98962.47;;;28.12;32.75
31225;BME280;17847;31.524;74.366;2023-04-10T04:32:23;98959.06;;;28.34;35.71
31225;BME280;17847;31.524;74.366;2023-04-10T04:35:02;98970.38;;;28.54;35.71
31225;BME280;17847;31.524;74.366;2023-04-10T04:37:49;98968.78;;;28.81;33.09
31225;BME280;17847;31.524;74.366;2023-04-10T04:40:46;98967.19;;;29.16;34.08
31225;BME280;17847;31.524;74.366;2023-04-10T04:43:34;98977.28;;;29.51;33.41
31225;BME280;17847;31.524;74.366;2023-04-10T04:46:17;98969.47;;;30.03;33.66
31225;BME280;17847;31.524;74.366;2023-04-10T04:48:58;98968.50;;;30.38;35.88
31225;BME280;17847;31.524;74.366;2023-04-10T04:51:50;98967.78;;;30.55;31.94
31225;BME280;17847;31.524;74.366;2023-04-10T04:54:49;98969.97;;;30.92;29.88
31225;BME280;17847;31.524;74.366;2023-04-10T04:57:51;98975.19;;;31.37;28.24
31225;BME280;17847;31.524;74.366;2023-04-10T05:00:40;98976.97;;;31.50;31.22
31225;BME280;17847;31.524;74.366;2023-04-10T05:03:27;98976.25;;;31.96;29.85
31225;BME280;17847;31.524;74.366;2023-04-10T05:06:03;98976.13;;;31.84;30.39
31225;BME280;17847;31.524;74.366;2023-04-10T05:08:51;98983.91;;;31.56;31.47
31225;BME280;17847;31.524;74.366;2023-04-10T05:11:45;98976.47;;;31.48;29.24
31225;BME280;17847;31.524;74.366;2023-04-10T05:14:37;98985.81;;;31.47;30.53
31225;BME280;17847;31.524;74.366;2023-04-10T05:17:26;98975.38;;;31.57;32.16
31225;BME280;17847;31.524;74.366;2023-04-10T05:20:14;98981.13;;;31.39;32.16
31225;BME280;17847;31.524;74.366;2023-04-10T05:23:02;98983.53;;;31.06;35.83
31225;BME280;17847;31.524;74.366;2023-04-10T05:25:52;98984.50;;;31.10;35.41
31225;BME280;17847;31.524;74.366;2023-04-10T05:28:58;98982.19;;;30.95;35.97
31225;BME280;17847;31.524;74.366;2023-04-10T05:31:45;98984.50;;;31.10;32.69
31225;BME280;17847;31.524;74.366;2023-04-10T05:34:38;98979.69;;;31.07;31.36
31225;BME280;17847;31.524;74.366;2023-04-10T05:37:11;98987.72;;;31.20;34.57
31225;BME280;17847;31.524;74.366;2023-04-10T05:40:16;98991.63;;;31.54;31.34
31225;BME280;17847;31.524;74.366;2023-04-10T05:43:14;98985.03;;;31.72;33.75
31225;BME280;17847;31.524;74.366;2023-04-10T05:45:57;98983.88;;;31.82;34.35
31225;BME280;17847;31.524;74.366;2023-04-10T05:48:45;98974.69;;;31.86;31.08
31225;BME280;17847;31.524;74.366;2023-04-10T05:51:17;98974.19;;;31.93;31.55
31225;BME280;17847;31.524;74.366;2023-04-10T05:54:06;98977.03;;;32.05;34.97
31225;BME280;17847;31.524;74.366;2023-04-10T05:56:59;98982.53;;;31.96;35.01
31225;BME280;17847;31.524;74.366;2023-04-10T05:59:46;98967.75;;;31.89;33.52
31225;BME280;17847;31.524;74.366;2023-04-10T06:02:39;98969.81;;;31.92;33.19
31225;BME280;17847;31.524;74.366;2023-04-10T06:05:17;98969.78;;;32.18;28.84
31225;BME280;17847;31.524;74.366;2023-04-10T06:07:47;98970.34;;;32.40;30.11
31225;BME280;17847;31.524;74.366;2023-04-10T06:10:17;98964.28;;;32.18;32.68
31225;BME280;17847;31.524;74.366;2023-04-10T06:12:46;98956.75;;;31.97;35.35
31225;BME280;17847;31.524;74.366;2023-04-10T06:15:16;98957.63;;;31.72;34.69
31225;BME280;17847;31.524;74.366;2023-04-10T06:17:46;98955.22;;;31.71;33.08
31225;BME280;17847;31.524;74.366;2023-04-10T06:20:15;98949.91;;;31.57;33.94
31225;BME280;17847;31.524;74.366;2023-04-10T06:22:45;98951.19;;;31.68;34.24
31225;BME280;17847;31.524;74.366;2023-04-10T06:25:14;98941.19;;;31.72;33.31
31225;BME280;17847;31.524;74.366;2023-04-10T06:27:44;98939.09;;;31.78;31.94
31225;BME280;17847;31.524;74.366;2023-04-10T06:30:14;98944.88;;;31.85;34.69
31225;BME280;17847;31.524;74.366;2023-04-10T06:32:43;98942.50;;;31.66;34.86
31225;BME280;17847;31.524;74.366;2023-04-10T06:35:13;98937.53;;;32.06;31.27
31225;BME280;17847;31.524;74.366;2023-04-10T06:37:43;98941.06;;;32.24;32.02
31225;BME280;17847;31.524;74.366;2023-04-10T06:40:14;98927.94;;;32.38;32.09
31225;BME280;17847;31.524;74.366;2023-04-10T06:42:44;98933.16;;;32.31;32.77
31225;BME280;17847;31.524;74.366;2023-04-10T06:45:22;98931.63;;;32.42;34.38
31225;BME280;17847;31.524;74.366;2023-04-10T06:47:51;98922.59;;;32.41;32.60
31225;BME280;17847;31.524;74.366;2023-04-10T06:50:21;98920.16;;;32.48;30.46
31225;BME280;17847;31.524;74.366;2023-04-10T06:52:51;98921.66;;;32.67;30.22
31225;BME280;17847;31.524;74.366;2023-04-10T06:55:24;98926.50;;;32.90;31.10
31225;BME280;17847;31.524;74.366;2023-04-10T06:57:55;98921.53;;;32.63;31.73
31225;BME280;17847;31.524;74.366;2023-04-10T07:00:24;98918.13;;;32.58;30.40
31225;BME280;17847;31.524;74.366;2023-04-10T07:02:54;98916.66;;;32.69;29.28
31225;BME280;17847;31.524;74.366;2023-04-10T07:05:25;98920.09;;;32.86;30.42
31225;BME280;17847;31.524;74.366;2023-04-10T07:07:54;98916.59;;;32.77;32.63
31225;BME280;17847;31.524;74.366;2023-04-10T07:10:26;98913.25;;;32.72;30.31
31225;BME280;17847;31.524;74.366;2023-04-10T07:12:56;98902.38;;;32.84;30.53
31225;BME280;17847;31.524;74.366;2023-04-10T07:15:26;98906.38;;;32.86;31.08
31225;BME280;17847;31.524;74.366;2023-04-10T07:17:56;98904.56;;;32.70;32.35
31225;BME280;17847;31.524;74.366;2023-04-10T07:20:26;98909.97;;;32.78;32.84
31225;BME280;17847;31.524;74.366;2023-04-10T07:22:56;98905.72;;;32.60;33.86
31225;BME280;17847;31.524;74.366;2023-04-10T07:25:25;98897.78;;;32.38;31.51
31225;BME280;17847;31.524;74.366;2023-04-10T07:27:55;98884.63;;;32.23;32.69
31225;BME280;17847;31.524;74.366;2023-04-10T07:30:25;98887.31;;;31.93;33.29
31225;BME280;17847;31.524;74.366;2023-04-10T07:32:54;98883.72;;;32.01;34.73
31225;BME280;17847;31.524;74.366;2023-04-10T07:35:24;98887.16;;;31.90;33.84
31225;BME280;17847;31.524;74.366;2023-04-10T07:37:53;98878.38;;;32.14;32.67
31225;BME280;17847;31.524;74.366;2023-04-10T07:40:23;98882.94;;;32.39;28.78
31225;BME280;17847;31.524;74.366;2023-04-10T07:42:52;98876.50;;;32.35;32.93
31225;BME280;17847;31.524;74.366;2023-04-10T07:45:22;98878.59;;;32.38;30.70
31225;BME280;17847;31.524;74.366;2023-04-10T07:47:51;98867.75;;;32.12;32.52
31225;BME280;17847;31.524;74.366;2023-04-10T07:50:21;98863.28;;;31.99;31.78
31225;BME280;17847;31.524;74.366;2023-04-10T07:52:50;98854.50;;;32.14;27.44
31225;BME280;17847;31.524;74.366;2023-04-10T07:55:19;98860.47;;;32.16;29.22
31225;BME280;17847;31.524;74.366;2023-04-10T07:57:49;98860.84;;;32.35;26.87
31225;BME280;17847;31.524;74.366;2023-04-10T08:00:20;98859.44;;;32.29;31.88
31225;BME280;17847;31.524;74.366;2023-04-10T08:02:49;98859.19;;;32.14;32.44
31225;BME280;17847;31.524;74.366;2023-04-10T08:05:19;98864.75;;;31.88;32.56
31225;BME280;17847;31.524;74.366;2023-04-10T08:07:49;98859.19;;;32.05;29.06
31225;BME280;17847;31.524;74.366;2023-04-10T08:10:19;98852.19;;;31.95;31.71
31225;BME280;17847;31.524;74.366;2023-04-10T08:12:49;98853.34;;;31.86;30.70
31225;BME280;17847;31.524;74.366;2023-04-10T08:15:18;98848.66;;;31.86;32.86
31225;BME280;17847;31.524;74.366;2023-04-10T08:17:48;98837.88;;;31.81;30.45
31225;BME280;17847;31.524;74.366;2023-04-10T08:20:18;98844.59;;;31.92;32.42
31225;BME280;17847;31.524;74.366;2023-04-10T08:22:48;98836.53;;;31.87;31.02
31225;BME280;17847;31.524;74.366;2023-04-10T08:25:17;98829.34;;;31.74;32.07
31225;BME280;17847;31.524;74.366;2023-04-10T08:27:46;98829.75;;;31.55;30.03
31225;BME280;17847;31.524;74.366;2023-04-10T08:30:16;98821.84;;;31.54;29.97
31225;BME280;17847;31.524;74.366;2023-04-10T08:32:45;98826.41;;;31.33;28.92
31225;BME280;17847;31.524;74.366;2023-04-10T08:35:15;98824.81;;;31.14;31.37
31225;BME280;17847;31.524;74.366;2023-04-10T08:37:45;98821.44;;;31.17;29.32
31225;BME280;17847;31.524;74.366;2023-04-10T08:40:29;98815.28;;;31.29;29.70
31225;BME280;17847;31.524;74.366;2023-04-10T08:42:58;98805.25;;;31.50;28.90
31225;BME280;17847;31.524;74.366;2023-04-10T08:45:29;98810.09;;;31.45;30.10
31225;BME280;17847;31.524;74.366;2023-04-10T08:48:01;98805.28;;;31.88;26.10
31225;BME280;17847;31.524;74.366;2023-04-10T08:50:32;98791.84;;;31.66;30.35
31225;BME280;17847;31.524;74.366;2023-04-10T08:53:09;98791.66;;;31.71;29.97
31225;BME280;17847;31.524;74.366;2023-04-10T08:55:40;98801.72;;;31.50;30.08
31225;BME280;17847;31.524;74.366;2023-04-10T08:58:10;98801.31;;;31.22;31.23
31225;BME280;17847;31.524;74.366;2023-04-10T09:00:41;98792.00;;;31.14;31.68
31225;BME280;17847;31.524;74.366;2023-04-10T09:03:10;98781.22;;;30.92;32.28
31225;BME280;17847;31.524;74.366;2023-04-10T09:05:42;98788.28;;;31.19;28.66
31225;BME280;17847;31.524;74.366;2023-04-10T09:08:14;98775.75;;;31.09;32.51
31225;BME280;17847;31.524;74.366;2023-04-10T09:10:43;98771.09;;;30.75;33.69
31225;BME280;17847;31.524;74.366;2023-04-10T09:13:13;98775.56;;;30.71;33.28
31225;BME280;17847;31.524;74.366;2023-04-10T09:15:56;98763.38;;;30.60;33.70
31225;BME280;17847;31.524;74.366;2023-04-10T09:18:52;98759.03;;;30.51;34.64
31225;BME280;17847;31.524;74.366;2023-04-10T09:21:24;98762.41;;;30.56;33.86
31225;BME280;17847;31.524;74.366;2023-04-10T09:24:01;98753.91;;;30.49;34.70
31225;BME280;17847;31.524;74.366;2023-04-10T09:26:31;98757.72;;;30.40;35.22
31225;BME280;17847;31.524;74.366;2023-04-10T09:29:05;98755.13;;;30.34;35.58
31225;BME280;17847;31.524;74.366;2023-04-10T09:31:38;98756.09;;;30.30;34.94
31225;BME280;17847;31.524;74.366;2023-04-10T09:34:13;98740.16;;;30.41;33.61
31225;BME280;17847;31.524;74.366;2023-04-10T09:36:53;98739.53;;;30.26;34.32
31225;BME280;17847;31.524;74.366;2023-04-10T09:39:34;98736.47;;;30.11;34.61
31225;BME280;17847;31.524;74.366;2023-04-10T09:42:04;98737.91;;;30.08;34.59
31225;BME280;17847;31.524;74.366;2023-04-10T09:44:36;98730.84;;;30.16;33.45
31225;BME280;17847;31.524;74.366;2023-04-10T09:47:21;98725.38;;;30.16;33.91
31225;BME280;17847;31.524;74.366;2023-04-10T09:49:55;98729.56;;;30.13;33.76
31225;BME280;17847;31.524;74.366;2023-04-10T09:52:27;98718.50;;;30.44;27.38
31225;BME280;17847;31.524;74.366;2023-04-10T09:55:04;98726.19;;;30.68;29.30
31225;BME280;17847;31.524;74.366;2023-04-10T09:57:36;98732.44;;;30.86;26.72
31225;BME280;17847;31.524;74.366;2023-04-10T10:00:06;98720.06;;;31.05;28.11
31225;BME280;17847;31.524;74.366;2023-04-10T10:02:38;98719.53;;;31.12;25.74
31225;BME280;17847;31.524;74.366;2023-04-10T10:05:09;98712.81;;;31.09;28.19
31225;BME280;17847;31.524;74.366;2023-04-10T10:07:39;98708.44;;;31.00;29.31
31225;BME280;17847;31.524;74.366;2023-04-10T10:10:11;98698.34;;;31.00;27.69
31225;BME280;17847;31.524;74.366;2023-04-10T10:12:46;98693.19;;;30.90;28.55
31225;BME280;17847;31.524;74.366;2023-04-10T10:18:31;98694.31;;;31.06;28.25
31225;BME280;17847;31.524;74.366;2023-04-10T10:21:04;98680.78;;;31.10;26.81
31225;BME280;17847;31.524;74.366;2023-04-10T10:23:35;98693.47;;;31.14;28.12
31225;BME280;17847;31.524;74.366;2023-04-10T10:26:05;98684.09;;;31.24;27.55
31225;BME280;17847;31.524;74.366;2023-04-10T10:28:36;98688.31;;;31.13;27.16
31225;BME280;17847;31.524;74.366;2023-04-10T10:31:09;98685.75;;;30.99;27.67
31225;BME280;17847;31.524;74.366;2023-04-10T10:33:40;98688.19;;;30.92;27.45
31225;BME280;17847;31.524;74.366;2023-04-10T10:36:10;98686.59;;;30.91;27.64
31225;BME280;17847;31.524;74.366;2023-04-10T10:38:49;98681.69;;;31.23;26.40
31225;BME280;17847;31.524;74.366;2023-04-10T10:41:31;98678.06;;;31.39;24.70
31225;BME280;17847;31.524;74.366;2023-04-10T10:47:18;98667.47;;;31.67;27.35
31225;BME280;17847;31.524;74.366;2023-04-10T10:49:58;98673.00;;;31.20;28.80
31225;BME280;17847;31.524;74.366;2023-04-10T10:58:05;98669.69;;;31.06;28.46
31225;BME280;17847;31.524;74.366;2023-04-10T11:05:51;98665.09;;;30.64;30.49
31225;BME280;17847;31.524;74.366;2023-04-10T11:11:02;98666.22;;;30.63;29.42
31225;BME280;17847;31.524;74.366;2023-04-10T11:13:39;98654.75;;;30.87;25.20
31225;BME280;17847;31.524;74.366;2023-04-10T11:16:10;98656.78;;;30.98;27.73
31225;BME280;17847;31.524;74.366;2023-04-10T11:21:29;98651.06;;;30.74;28.08
31225;BME280;17847;31.524;74.366;2023-04-10T11:24:01;98659.13;;;30.70;29.79
31225;BME280;17847;31.524;74.366;2023-04-10T11:26:35;98657.22;;;30.62;30.00
31225;BME280;17847;31.524;74.366;2023-04-10T11:32:08;98655.59;;;30.70;27.71
31225;BME280;17847;31.524;74.366;2023-04-10T11:34:43;98656.22;;;30.84;27.08
31225;BME280;17847;31.524;74.366;2023-04-10T11:37:22;98656.97;;;30.93;25.59
31225;BME280;17847;31.524;74.366;2023-04-10T11:40:03;98653.47;;;30.84;28.54
31225;BME280;17847;31.524;74.366;2023-04-10T11:42:33;98653.59;;;30.96;26.09
31225;BME280;17847;31.524;74.366;2023-04-10T11:45:25;98648.28;;;30.91;28.44
31225;BME280;17847;31.524;74.366;2023-04-10T11:47:56;98641.97;;;30.99;26.44
31225;BME280;17847;31.524;74.366;2023-04-10T11:50:27;98644.56;;;31.04;27.89
31225;BME280;17847;31.524;74.366;2023-04-10T11:53:00;98641.84;;;31.04;27.46
31225;BME280;17847;31.524;74.366;2023-04-10T11:55:38;98640.56;;;30.93;27.66
31225;BME280;17847;31.524;74.366;2023-04-10T11:58:40;98651.16;;;30.95;27.85
31225;BME280;17847;31.524;74.366;2023-04-10T12:01:10;98641.88;;;30.87;27.87
31225;BME280;17847;31.524;74.366;2023-04-10T12:03:43;98642.53;;;30.84;26.07
31225;BME280;17847;31.524;74.366;2023-04-10T12:06:13;98638.25;;;30.66;28.43
31225;BME280;17847;31.524;74.366;2023-04-10T12:08:45;98642.59;;;30.50;29.51
31225;BME280;17847;31.524;74.366;2023-04-10T12:11:22;98643.53;;;30.37;27.61
31225;BME280;17847;31.524;74.366;2023-04-10T12:13:56;98641.78;;;30.32;28.95
31225;BME280;17847;31.524;74.366;2023-04-10T12:16:27;98633.78;;;30.27;28.63
31225;BME280;17847;31.524;74.366;2023-04-10T12:18:56;98638.09;;;30.19;29.01
31225;BME280;17847;31.524;74.366;2023-04-10T12:21:26;98639.06;;;30.15;29.12
31225;BME280;17847;31.524;74.366;2023-04-10T12:23:55;98636.97;;;30.12;29.54
31225;BME280;17847;31.524;74.366;2023-04-10T12:26:25;98634.91;;;30.00;29.99
31225;BME280;17847;31.524;74.366;2023-04-10T12:28:55;98637.63;;;29.92;29.74
31225;BME280;17847;31.524;74.366;2023-04-10T12:31:30;98641.75;;;29.80;29.91
31225;BME280;17847;31.524;74.366;2023-04-10T12:34:01;98640.47;;;29.78;30.51
31225;BME280;17847;31.524;74.366;2023-04-10T12:36:31;98648.66;;;29.69;31.99
31225;BME280;17847;31.524;74.366;2023-04-10T12:39:03;98643.00;;;29.57;30.92
31225;BME280;17847;31.524;74.366;2023-04-10T12:41:34;98645.84;;;29.43;31.82
31225;BME280;17847;31.524;74.366;2023-04-10T12:44:09;98645.66;;;29.31;30.93
31225;BME280;17847;31.524;74.366;2023-04-10T12:46:40;98653.66;;;29.28;32.40
31225;BME280;17847;31.524;74.366;2023-04-10T12:49:16;98650.72;;;29.16;31.43
31225;BME280;17847;31.524;74.366;2023-04-10T12:51:51;98656.78;;;29.13;31.87
31225;BME280;17847;31.524;74.366;2023-04-10T12:54:34;98658.53;;;29.09;32.71
31225;BME280;17847;31.524;74.366;2023-04-10T12:57:05;98664.13;;;29.03;33.15
31225;BME280;17847;31.524;74.366;2023-04-10T12:59:34;98663.75;;;28.88;33.63
31225;BME280;17847;31.524;74.366;2023-04-10T13:02:05;98661.44;;;28.81;32.08
31225;BME280;17847;31.524;74.366;2023-04-10T13:04:35;98661.09;;;28.74;33.12
31225;BME280;17847;31.524;74.366;2023-04-10T13:07:06;98664.50;;;28.80;33.24
31225;BME280;17847;31.524;74.366;2023-04-10T13:09:36;98666.25;;;28.76;32.50
31225;BME280;17847;31.524;74.366;2023-04-10T13:12:06;98673.38;;;28.63;34.42
31225;BME280;17847;31.524;74.366;2023-04-10T13:14:36;98671.81;;;28.48;35.23
31225;BME280;17847;31.524;74.366;2023-04-10T13:17:05;98680.34;;;28.33;34.86
31225;BME280;17847;31.524;74.366;2023-04-10T13:19:35;98682.19;;;28.24;36.07
31225;BME280;17847;31.524;74.366;2023-04-10T13:22:06;98675.56;;;28.17;33.55
31225;BME280;17847;31.524;74.366;2023-04-10T13:24:36;98684.03;;;28.15;34.97
31225;BME280;17847;31.524;74.366;2023-04-10T13:27:05;98678.19;;;28.08;33.99
31225;BME280;17847;31.524;74.366;2023-04-10T13:29:35;98690.09;;;27.98;37.02
31225;BME280;17847;31.524;74.366;2023-04-10T13:32:07;98687.94;;;27.87;37.58
31225;BME280;17847;31.524;74.366;2023-04-10T13:34:37;98689.13;;;27.81;37.96
31225;BME280;17847;31.524;74.366;2023-04-10T13:37:09;98691.59;;;27.68;39.02
31225;BME280;17847;31.524;74.366;2023-04-10T13:39:40;98694.59;;;27.53;39.72
31225;BME280;17847;31.524;74.366;2023-04-10T13:42:12;98692.66;;;27.40;40.28
31225;BME280;17847;31.524;74.366;2023-04-10T13:44:41;98694.47;;;27.31;40.81
31225;BME280;17847;31.524;74.366;2023-04-10T13:47:12;98692.88;;;27.16;41.42
31225;BME280;17847;31.524;74.366;2023-04-10T13:49:43;98699.78;;;27.09;41.91
31225;BME280;17847;31.524;74.366;2023-04-10T13:52:16;98696.47;;;26.98;42.34
31225;BME280;17847;31.524;74.366;2023-04-10T13:54:46;98699.56;;;26.92;42.77